Time;durP1;ratioP1;P1;durP2;ratioP2;P2;SDS_P1;SDS_P2;PMS_P1;PMS_P2;Temp;Humidity;BMP_temperature;BMP_pressure;BME280_temperature;BME280_humidity;BME280_pressure;Samples;Min_cycle;Max_cycle;Signal;HPM_P1;HPM_P2
2022/04/14 00:01:39;;;;;;;66.00;7.73;;;;;;;;;;5087222;28;20541;-71
2022/04/14 00:04:07;;;;;;;62.97;7.03;;;;;;;;;;5091647;28;20573;-71
2022/04/14 00:06:34;;;;;;;63.77;7.63;;;;;;;;;;5092044;28;20552;-71
2022/04/14 00:09:01;;;;;;;66.97;7.60;;;;;;;;;;5090843;28;20848;-71
2022/04/14 00:11:30;;;;;;;64.23;7.50;;;;;;;;;;5091411;28;20485;-70
2022/04/14 00:13:57;;;;;;;67.30;7.80;;;;;;;;;;5091658;28;20537;-71
2022/04/14 00:16:24;;;;;;;66.87;7.90;;;;;;;;;;5091673;28;20540;-71
2022/04/14 00:18:53;;;;;;;68.53;9.00;;;;;;;;;;5090766;28;20559;-72
2022/04/14 00:21:20;;;;;;;66.17;7.63;;;;;;;;;;5091645;28;20467;-72
2022/04/14 00:23:47;;;;;;;69.90;8.53;;;;;;;;;;5091206;28;20568;-72
2022/04/14 00:26:14;;;;;;;66.07;7.87;;;;;;;;;;5091396;28;20498;-72
2022/04/14 00:28:43;;;;;;;64.13;7.93;;;;;;;;;;5090744;28;20898;-72
2022/04/14 00:31:10;;;;;;;67.80;7.80;;;;;;;;;;5091510;28;20547;-72
2022/04/14 00:33:37;;;;;;;66.77;8.50;;;;;;;;;;5084390;28;20475;-71
2022/04/14 00:36:04;;;;;;;65.17;7.60;;;;;;;;;;5071183;28;20549;-72
2022/04/14 00:38:31;;;;;;;64.00;7.77;;;;;;;;;;5071436;28;20560;-72
2022/04/14 00:40:59;;;;;;;65.37;8.97;;;;;;;;;;5075111;28;20532;-72
2022/04/14 00:43:30;;;;;;;66.70;9.37;;;;;;;;;;5074738;28;20531;-75
2022/04/14 00:45:59;;;;;;;66.90;9.10;;;;;;;;;;5074841;28;20963;-71
2022/04/14 00:48:26;;;;;;;65.53;8.27;;;;;;;;;;5073951;28;20832;-72
2022/04/14 00:50:53;;;;;;;67.00;8.70;;;;;;;;;;5074641;28;20892;-72
2022/04/14 00:53:21;;;;;;;64.87;8.20;;;;;;;;;;5074604;28;20531;-72
2022/04/14 00:55:48;;;;;;;65.77;9.07;;;;;;;;;;5074923;28;20489;-72
2022/04/14 00:58:15;;;;;;;66.30;8.27;;;;;;;;;;5074025;28;20577;-74
2022/04/14 01:00:43;;;;;;;64.07;7.87;;;;;;;;;;5074602;28;20540;-72
2022/04/14 01:03:11;;;;;;;63.37;8.00;;;;;;;;;;5074434;28;20545;-73
2022/04/14 01:05:39;;;;;;;66.00;8.10;;;;;;;;;;5073263;28;20438;-74
2022/04/14 01:08:07;;;;;;;69.03;9.97;;;;;;;;;;5073819;28;20552;-74
2022/04/14 01:10:35;;;;;;;68.50;8.40;;;;;;;;;;5074210;28;20995;-73
2022/04/14 01:13:02;;;;;;;66.60;8.50;;;;;;;;;;5074445;28;20497;-73
2022/04/14 01:15:29;;;;;;;64.33;7.97;;;;;;;;;;5074444;28;20484;-73
2022/04/14 01:17:56;;;;;;;67.43;7.90;;;;;;;;;;5073572;28;20546;-73
2022/04/14 01:20:25;;;;;;;64.30;8.17;;;;;;;;;;5074149;28;20441;-73
2022/04/14 01:22:56;;;;;;;62.50;7.10;;;;;;;;;;5074343;28;20526;-72
2022/04/14 01:25:25;;;;;;;70.30;8.57;;;;;;;;;;5074177;28;20485;-73
2022/04/14 01:27:52;;;;;;;71.00;9.50;;;;;;;;;;5073681;28;20912;-74
2022/04/14 01:30:19;;;;;;;70.20;9.97;;;;;;;;;;5074148;28;20536;-73
2022/04/14 01:32:46;;;;;;;70.60;7.90;;;;;;;;;;5073868;28;20549;-73
2022/04/14 01:35:14;;;;;;;65.30;9.00;;;;;;;;;;5074111;28;20532;-73
2022/04/14 01:37:41;;;;;;;67.57;9.40;;;;;;;;;;5073134;28;21031;-73
2022/04/14 01:40:09;;;;;;;68.70;8.90;;;;;;;;;;5073983;28;20481;-73
2022/04/14 01:42:37;;;;;;;65.50;9.30;;;;;;;;;;5073785;28;20531;-73
2022/04/14 01:45:05;;;;;;;65.67;8.93;;;;;;;;;;5073663;28;20576;-73
2022/04/14 01:47:32;;;;;;;65.70;9.03;;;;;;;;;;5069860;28;20502;-73
2022/04/14 01:49:59;;;;;;;67.70;9.00;;;;;;;;;;5073556;28;20552;-72
2022/04/14 01:52:26;;;;;;;65.70;8.83;;;;;;;;;;5073627;28;20535;-74
2022/04/14 01:54:53;;;;;;;69.47;9.00;;;;;;;;;;5073506;28;20525;-73
2022/04/14 01:57:20;;;;;;;69.47;8.50;;;;;;;;;;5072886;28;20529;-73
2022/04/14 01:59:49;;;;;;;65.37;8.70;;;;;;;;;;5073653;28;20556;-73
2022/04/14 02:02:16;;;;;;;66.47;8.60;;;;;;;;;;5073568;28;20539;-73
2022/04/14 02:04:44;;;;;;;65.57;8.10;;;;;;;;;;5073398;28;20580;-74
2022/04/14 02:07:11;;;;;;;72.63;8.67;;;;;;;;;;5072578;28;20458;-74
2022/04/14 02:09:38;;;;;;;66.00;8.77;;;;;;;;;;5072772;28;20551;-73
2022/04/14 02:12:05;;;;;;;66.90;9.17;;;;;;;;;;5073454;28;20537;-73
2022/04/14 02:14:33;;;;;;;67.17;10.10;;;;;;;;;;5073373;28;20529;-73
2022/04/14 02:17:01;;;;;;;66.87;9.30;;;;;;;;;;5073229;28;20528;-73
2022/04/14 02:19:28;;;;;;;66.00;8.80;;;;;;;;;;5072871;28;20497;-73
2022/04/14 02:21:58;;;;;;;65.90;8.77;;;;;;;;;;5073051;28;20621;-73
2022/04/14 02:24:25;;;;;;;64.23;7.50;;;;;;;;;;5072876;28;20496;-73
2022/04/14 02:26:52;;;;;;;63.80;7.60;;;;;;;;;;5073118;28;20891;-73
2022/04/14 02:29:20;;;;;;;64.53;7.73;;;;;;;;;;5072281;28;20531;-74
2022/04/14 02:31:47;;;;;;;63.73;7.70;;;;;;;;;;5073005;28;20540;-73
2022/04/14 02:34:15;;;;;;;65.57;8.57;;;;;;;;;;5072772;28;20445;-73
2022/04/14 02:36:42;;;;;;;65.97;7.43;;;;;;;;;;5072815;28;20535;-73
2022/04/14 02:39:10;;;;;;;64.63;8.07;;;;;;;;;;5072107;28;20478;-73
2022/04/14 02:41:38;;;;;;;65.10;8.00;;;;;;;;;;5072693;28;20445;-73
2022/04/14 02:44:05;;;;;;;70.87;8.50;;;;;;;;;;5072510;28;20580;-73
2022/04/14 02:46:32;;;;;;;64.43;7.60;;;;;;;;;;5072653;28;20444;-74
2022/04/14 02:48:59;;;;;;;68.70;8.32;;;;;;;;;;5071533;28;20234;-73
2022/04/14 02:51:28;;;;;;;63.93;8.27;;;;;;;;;;5072720;28;20206;-73
2022/04/14 02:53:55;;;;;;;63.10;7.37;;;;;;;;;;5072255;28;20941;-73
2022/04/14 02:56:22;;;;;;;63.83;7.63;;;;;;;;;;5072882;28;20449;-73
2022/04/14 02:58:49;;;;;;;62.77;7.23;;;;;;;;;;5071822;28;20559;-73
2022/04/14 03:01:16;;;;;;;65.80;8.00;;;;;;;;;;5071806;28;20956;-73
2022/04/14 03:03:43;;;;;;;66.53;7.88;;;;;;;;;;5072273;28;20552;-73
2022/04/14 03:06:10;;;;;;;63.97;7.53;;;;;;;;;;5072441;28;20228;-73
2022/04/14 03:08:39;;;;;;;63.77;7.67;;;;;;;;;;5071589;28;20482;-73
2022/04/14 03:11:06;;;;;;;65.30;7.70;;;;;;;;;;5072343;28;20490;-73
2022/04/14 03:13:33;;;;;;;63.37;7.63;;;;;;;;;;5072164;28;20460;-72
2022/04/14 03:16:00;;;;;;;63.47;8.03;;;;;;;;;;5072087;28;20531;-73
2022/04/14 03:18:27;;;;;;;66.27;7.93;;;;;;;;;;5071643;28;20977;-72
2022/04/14 03:20:54;;;;;;;63.50;7.77;;;;;;;;;;5072269;28;20448;-73
2022/04/14 03:23:21;;;;;;;65.07;7.85;;;;;;;;;;5072163;28;20457;-72
2022/04/14 03:25:50;;;;;;;65.67;7.87;;;;;;;;;;5072063;28;20255;-73
2022/04/14 03:28:17;;;;;;;67.23;7.97;;;;;;;;;;5071271;28;20850;-74
2022/04/14 03:30:45;;;;;;;64.90;6.90;;;;;;;;;;5072451;28;20456;-74
2022/04/14 03:33:12;;;;;;;66.60;8.27;;;;;;;;;;5072041;28;20461;-72
2022/04/14 03:35:39;;;;;;;64.30;8.27;;;;;;;;;;5071846;28;20938;-73
2022/04/14 03:38:06;;;;;;;66.77;8.20;;;;;;;;;;5070984;28;20554;-73
2022/04/14 03:40:34;;;;;;;66.30;8.35;;;;;;;;;;5072095;28;20656;-73
2022/04/14 03:43:03;;;;;;;62.47;7.20;;;;;;;;;;5071596;28;20683;-73
2022/04/14 03:45:30;;;;;;;64.82;8.48;;;;;;;;;;5071937;28;20572;-73
2022/04/14 03:47:57;;;;;;;62.53;7.27;;;;;;;;;;5071114;28;20229;-73
2022/04/14 03:50:24;;;;;;;63.77;7.70;;;;;;;;;;5072017;28;20453;-71
2022/04/14 03:52:51;;;;;;;67.40;7.57;;;;;;;;;;5071758;28;20457;-73
2022/04/14 03:55:18;;;;;;;63.40;7.07;;;;;;;;;;5071220;28;20203;-73
2022/04/14 03:57:46;;;;;;;66.38;8.20;;;;;;;;;;5070731;28;20552;-73
2022/04/14 04:00:15;;;;;;;63.50;8.02;;;;;;;;;;5071889;28;20588;-73
2022/04/14 04:02:42;;;;;;;64.07;8.30;;;;;;;;;;5071652;28;20615;-73
2022/04/14 04:05:10;;;;;;;63.50;7.73;;;;;;;;;;5071637;28;20667;-74
2022/04/14 04:07:37;;;;;;;64.40;8.20;;;;;;;;;;5070622;28;20443;-73
2022/04/14 04:10:04;;;;;;;71.43;7.90;;;;;;;;;;5071394;28;20997;-73
2022/04/14 04:12:31;;;;;;;64.03;7.60;;;;;;;;;;5071342;28;21232;-73
2022/04/14 04:14:58;;;;;;;64.75;8.18;;;;;;;;;;5075319;28;20691;-73
2022/04/14 04:17:27;;;;;;;65.20;7.85;;;;;;;;;;5074805;28;20205;-73
2022/04/14 04:19:55;;;;;;;67.57;7.93;;;;;;;;;;5075504;28;20213;-73
2022/04/14 04:22:22;;;;;;;67.53;7.80;;;;;;;;;;5075379;28;20583;-73
2022/04/14 04:24:49;;;;;;;65.07;8.05;;;;;;;;;;5075634;28;20498;-71
2022/04/14 04:27:16;;;;;;;65.80;8.23;;;;;;;;;;5074772;28;20214;-73
2022/04/14 04:29:43;;;;;;;63.47;7.63;;;;;;;;;;5075375;28;20550;-73
2022/04/14 04:32:10;;;;;;;64.70;8.50;;;;;;;;;;5075505;28;20881;-73
2022/04/14 04:34:39;;;;;;;66.97;9.03;;;;;;;;;;5075018;28;20709;-72
2022/04/14 04:37:06;;;;;;;66.27;9.10;;;;;;;;;;5074910;28;20488;-73
2022/04/14 04:39:33;;;;;;;71.00;9.35;;;;;;;;;;5074954;28;20468;-73
2022/04/14 04:42:00;;;;;;;65.70;8.95;;;;;;;;;;5075271;28;20202;-73
2022/04/14 04:44:28;;;;;;;65.30;8.20;;;;;;;;;;5075016;28;20581;-72
2022/04/14 04:46:55;;;;;;;63.60;8.13;;;;;;;;;;5074954;28;20214;-73
2022/04/14 04:49:22;;;;;;;65.17;8.23;;;;;;;;;;5074114;28;20567;-74
2022/04/14 04:51:50;;;;;;;65.68;8.35;;;;;;;;;;5074782;28;20530;-73
2022/04/14 04:54:18;;;;;;;67.78;8.35;;;;;;;;;;5074780;28;20301;-73
2022/04/14 04:56:45;;;;;;;65.68;8.45;;;;;;;;;;5074749;28;20289;-73
2022/04/14 04:59:12;;;;;;;66.10;8.88;;;;;;;;;;5073990;28;20316;-73
2022/04/14 05:01:39;;;;;;;69.97;8.15;;;;;;;;;;5074758;28;20292;-73
2022/04/14 05:04:06;;;;;;;64.60;7.40;;;;;;;;;;5074457;28;20701;-72
2022/04/14 05:06:33;;;;;;;66.10;8.40;;;;;;;;;;5074235;28;20480;-73
2022/04/14 05:09:02;;;;;;;64.80;8.20;;;;;;;;;;5074048;28;20229;-73
2022/04/14 05:11:29;;;;;;;69.40;8.40;;;;;;;;;;5074779;28;20224;-73
2022/04/14 05:13:56;;;;;;;67.75;8.00;;;;;;;;;;5074615;28;20531;-73
2022/04/14 05:16:23;;;;;;;64.53;7.83;;;;;;;;;;5074546;28;20229;-73
2022/04/14 05:18:50;;;;;;;65.55;8.32;;;;;;;;;;5073434;28;20559;-73
2022/04/14 05:21:18;;;;;;;67.50;8.97;;;;;;;;;;5074612;28;20259;-73
2022/04/14 05:23:45;;;;;;;69.37;8.93;;;;;;;;;;5073747;28;20938;-73
2022/04/14 05:26:13;;;;;;;73.70;8.57;;;;;;;;;;5074520;28;20492;-73
2022/04/14 05:28:41;;;;;;;66.10;8.30;;;;;;;;;;5073491;28;20317;-73
2022/04/14 05:31:08;;;;;;;62.30;7.20;;;;;;;;;;5074396;28;20522;-73
2022/04/14 05:33:35;;;;;;;66.37;8.63;;;;;;;;;;5074148;28;20479;-71
2022/04/14 05:36:02;;;;;;;63.17;7.23;;;;;;;;;;5074345;28;20477;-73
2022/04/14 05:38:29;;;;;;;65.70;8.18;;;;;;;;;;5073582;28;20931;-72
2022/04/14 05:40:56;;;;;;;63.27;7.77;;;;;;;;;;5073921;28;20207;-73
2022/04/14 05:43:27;;;;;;;68.43;7.97;;;;;;;;;;5073995;28;20450;-73
2022/04/14 05:45:55;;;;;;;65.40;8.20;;;;;;;;;;5073681;28;21051;-73
2022/04/14 05:48:22;;;;;;;68.10;8.07;;;;;;;;;;5073185;28;20482;-73
2022/04/14 05:50:50;;;;;;;64.00;7.87;;;;;;;;;;5073746;28;20537;-72
2022/04/14 05:53:20;;;;;;;64.47;7.63;;;;;;;;;;5073608;28;20949;-71
2022/04/14 05:55:48;;;;;;;64.47;8.20;;;;;;;;;;5073863;28;20458;-72
2022/04/14 05:58:16;;;;;;;66.13;8.43;;;;;;;;;;5072971;28;20489;-73
2022/04/14 06:00:45;;;;;;;65.80;8.23;;;;;;;;;;5073592;28;20485;-73
2022/04/14 06:03:12;;;;;;;65.47;8.50;;;;;;;;;;5073489;28;20450;-73
2022/04/14 06:05:39;;;;;;;67.10;7.43;;;;;;;;;;5073633;28;20575;-73
2022/04/14 06:08:07;;;;;;;63.73;7.87;;;;;;;;;;5072805;28;20475;-72
2022/04/14 06:10:35;;;;;;;68.40;8.37;;;;;;;;;;5073364;28;20460;-73
2022/04/14 06:13:03;;;;;;;65.47;8.63;;;;;;;;;;5073392;28;20453;-72
2022/04/14 06:15:31;;;;;;;64.10;7.83;;;;;;;;;;5073909;28;20445;-72
2022/04/14 06:18:00;;;;;;;67.63;8.27;;;;;;;;;;5072587;28;20566;-73
2022/04/14 06:20:27;;;;;;;68.40;8.87;;;;;;;;;;5073117;28;20967;-73
2022/04/14 06:22:55;;;;;;;64.27;8.30;;;;;;;;;;5073216;28;20525;-73
2022/04/14 06:25:23;;;;;;;65.00;8.77;;;;;;;;;;5073138;28;20857;-73
2022/04/14 06:27:51;;;;;;;64.93;8.33;;;;;;;;;;5072396;28;20630;-73
2022/04/14 06:30:18;;;;;;;68.00;9.40;;;;;;;;;;5073046;28;20542;-73
2022/04/14 06:32:55;;;;;;;67.20;8.33;;;;;;;;;;5074368;28;20452;-72
2022/04/14 06:35:24;;;;;;;63.57;7.73;;;;;;;;;;5072245;28;20441;-72
2022/04/14 06:37:51;;;;;;;64.17;7.87;;;;;;;;;;5071725;28;20556;-72
2022/04/14 06:40:18;;;;;;;63.37;8.20;;;;;;;;;;5072654;28;20452;-72
2022/04/14 06:42:45;;;;;;;64.37;8.77;;;;;;;;;;5073003;28;20461;-70
2022/04/14 06:45:13;;;;;;;68.97;9.20;;;;;;;;;;5072764;28;20450;-70
2022/04/14 06:47:40;;;;;;;67.80;8.63;;;;;;;;;;5072094;28;20502;-70
2022/04/14 06:50:07;;;;;;;65.47;8.20;;;;;;;;;;5072517;28;20903;-70
2022/04/14 06:52:37;;;;;;;63.60;8.00;;;;;;;;;;5072402;28;20451;-70
2022/04/14 06:55:05;;;;;;;70.10;9.53;;;;;;;;;;5072713;28;20530;-70
2022/04/14 06:57:32;;;;;;;66.10;9.80;;;;;;;;;;5071890;28;20905;-71
2022/04/14 06:59:59;;;;;;;66.70;9.30;;;;;;;;;;5072356;28;21030;-70
2022/04/14 07:02:26;;;;;;;65.07;9.57;;;;;;;;;;5072341;28;20447;-70
2022/04/14 07:04:54;;;;;;;66.87;9.70;;;;;;;;;;5072382;28;20449;-70
2022/04/14 07:07:21;;;;;;;67.67;10.50;;;;;;;;;;5071283;28;20487;-70
2022/04/14 07:09:49;;;;;;;69.77;11.80;;;;;;;;;;5071914;28;20534;-70
2022/04/14 07:12:16;;;;;;;73.20;11.20;;;;;;;;;;5072332;28;20534;-70
2022/04/14 07:14:44;;;;;;;74.07;11.80;;;;;;;;;;5072094;28;20453;-70
2022/04/14 07:17:11;;;;;;;68.70;12.30;;;;;;;;;;5071411;28;20570;-71
2022/04/14 07:19:38;;;;;;;73.83;13.10;;;;;;;;;;5072027;28;20814;-70
2022/04/14 07:22:05;;;;;;;74.67;14.30;;;;;;;;;;5072073;28;20451;-71
2022/04/14 07:24:33;;;;;;;73.07;15.13;;;;;;;;;;5072236;28;20447;-70
2022/04/14 07:27:01;;;;;;;75.97;15.00;;;;;;;;;;5071819;28;20578;-70
2022/04/14 07:29:28;;;;;;;77.93;18.57;;;;;;;;;;5071278;28;20471;-71
2022/04/14 07:31:55;;;;;;;79.73;19.17;;;;;;;;;;5071861;28;21011;-71
2022/04/14 07:34:23;;;;;;;78.60;18.20;;;;;;;;;;5071762;28;21011;-70
2022/04/14 07:36:50;;;;;;;78.90;17.30;;;;;;;;;;5072096;28;20443;-71
2022/04/14 07:39:17;;;;;;;80.17;17.50;;;;;;;;;;5071251;28;20472;-70
2022/04/14 07:41:44;;;;;;;77.07;17.20;;;;;;;;;;5071898;28;20973;-71
2022/04/14 07:44:12;;;;;;;76.47;16.97;;;;;;;;;;5071841;28;20964;-70
2022/04/14 07:46:41;;;;;;;78.53;16.43;;;;;;;;;;5071530;28;20486;-70
2022/04/14 07:49:08;;;;;;;79.97;18.67;;;;;;;;;;5070878;28;20570;-70
2022/04/14 07:51:35;;;;;;;86.57;19.50;;;;;;;;;;5071963;28;20535;-71
2022/04/14 07:54:02;;;;;;;82.43;20.77;;;;;;;;;;5071869;28;20531;-70
2022/04/14 07:56:29;;;;;;;82.97;20.20;;;;;;;;;;5071646;28;20443;-71
2022/04/14 07:58:56;;;;;;;78.70;19.27;;;;;;;;;;5070915;28;20468;-71
2022/04/14 08:01:25;;;;;;;80.10;19.10;;;;;;;;;;5071484;28;20457;-71
2022/04/14 08:03:52;;;;;;;80.47;22.20;;;;;;;;;;5071770;28;20454;-71
2022/04/14 08:06:19;;;;;;;82.10;20.47;;;;;;;;;;5071709;28;20487;-71
2022/04/14 08:08:46;;;;;;;83.33;20.63;;;;;;;;;;5070908;28;20565;-71
2022/04/14 08:11:14;;;;;;;79.37;19.70;;;;;;;;;;5071688;28;20806;-71
2022/04/14 08:13:42;;;;;;;81.43;20.00;;;;;;;;;;5071579;28;20460;-71
2022/04/14 08:16:10;;;;;;;88.87;20.10;;;;;;;;;;5071418;28;20570;-71
2022/04/14 08:18:39;;;;;;;79.67;19.60;;;;;;;;;;5070930;28;20478;-71
2022/04/14 08:21:06;;;;;;;79.43;20.13;;;;;;;;;;5071776;28;20841;-71
2022/04/14 08:23:38;;;;;;;78.50;17.90;;;;;;;;;;5071528;28;20470;-71
2022/04/14 08:26:06;;;;;;;77.80;18.57;;;;;;;;;;5071375;28;20517;-71
2022/04/14 08:28:34;;;;;;;79.20;17.87;;;;;;;;;;5070581;28;20464;-71
2022/04/14 08:31:01;;;;;;;76.80;18.53;;;;;;;;;;5071262;28;20942;-71
2022/04/14 08:33:28;;;;;;;77.53;17.03;;;;;;;;;;5071234;28;20456;-71
2022/04/14 08:35:58;;;;;;;79.60;18.13;;;;;;;;;;5071247;28;20540;-71
2022/04/14 08:38:25;;;;;;;81.50;17.63;;;;;;;;;;5070470;28;20481;-70
2022/04/14 08:40:58;;;;;;;83.07;20.67;;;;;;;;;;5070989;28;20590;-70
2022/04/14 08:43:29;;;;;;;87.93;19.80;;;;;;;;;;5071416;28;20813;-71
2022/04/14 08:45:57;;;;;;;78.40;17.07;;;;;;;;;;5071167;28;20492;-72
2022/04/14 08:48:24;;;;;;;82.00;19.40;;;;;;;;;;5070407;28;20486;-70
2022/04/14 08:50:52;;;;;;;80.70;18.80;;;;;;;;;;5071296;28;20822;-71
2022/04/14 08:53:20;;;;;;;80.43;20.33;;;;;;;;;;5071189;28;20477;-71
2022/04/14 08:55:48;;;;;;;74.73;17.33;;;;;;;;;;5071316;28;20501;-71
2022/04/14 08:58:16;;;;;;;77.87;18.30;;;;;;;;;;5070469;28;20555;-71
2022/04/14 09:00:43;;;;;;;85.17;19.40;;;;;;;;;;5074134;28;20450;-71
2022/04/14 09:03:10;;;;;;;86.17;19.30;;;;;;;;;;5074680;28;20537;-71
2022/04/14 09:05:38;;;;;;;78.80;20.00;;;;;;;;;;5074543;28;20500;-71
2022/04/14 09:08:05;;;;;;;86.87;20.03;;;;;;;;;;5073615;28;20497;-71
2022/04/14 09:10:34;;;;;;;82.30;19.30;;;;;;;;;;5074656;28;20450;-71
2022/04/14 09:13:01;;;;;;;79.97;18.73;;;;;;;;;;5074510;28;20446;-71
2022/04/14 09:15:28;;;;;;;76.93;16.77;;;;;;;;;;5074463;28;20530;-71
2022/04/14 09:17:55;;;;;;;75.80;16.90;;;;;;;;;;5073492;28;20482;-71
2022/04/14 09:20:34;;;;;;;290.23;38.70;;;;;;;;;;5074263;28;20473;-71
2022/04/14 09:23:15;;;;;;;149.90;26.10;;;;;;;;;;5074196;28;20455;-71
2022/04/14 09:25:44;;;;;;;79.70;16.17;;;;;;;;;;5074633;28;20454;-71
2022/04/14 09:28:12;;;;;;;76.73;16.90;;;;;;;;;;5073732;28;20482;-71
2022/04/14 09:30:39;;;;;;;73.87;16.27;;;;;;;;;;5074111;28;20494;-71
2022/04/14 09:33:07;;;;;;;81.20;17.40;;;;;;;;;;5073879;28;20483;-71
2022/04/14 09:35:34;;;;;;;77.30;16.87;;;;;;;;;;5074230;28;20475;-72
2022/04/14 09:38:02;;;;;;;77.17;16.20;;;;;;;;;;5073272;28;20468;-72
2022/04/14 09:40:30;;;;;;;73.90;15.23;;;;;;;;;;5074003;28;20450;-72
2022/04/14 09:42:59;;;;;;;76.83;16.13;;;;;;;;;;5073828;28;20444;-72
2022/04/14 09:45:26;;;;;;;76.20;15.93;;;;;;;;;;5073814;28;20449;-72
2022/04/14 09:47:54;;;;;;;75.93;16.33;;;;;;;;;;5072695;28;21005;-72
2022/04/14 09:50:26;;;;;;;80.60;18.00;;;;;;;;;;5073877;28;20954;-73
2022/04/14 09:53:01;;;;;;;73.50;15.60;;;;;;;;;;5073589;28;20455;-72
2022/04/14 09:55:29;;;;;;;72.53;14.97;;;;;;;;;;5073613;28;20534;-72
2022/04/14 09:58:14;;;;;;;74.10;15.37;;;;;;;;;;5072761;28;20546;-72
2022/04/14 10:00:46;;;;;;;74.90;14.80;;;;;;;;;;5073532;28;20455;-72
2022/04/14 10:03:18;;;;;;;74.07;13.90;;;;;;;;;;5073633;28;20455;-72
2022/04/14 10:05:45;;;;;;;70.90;13.90;;;;;;;;;;5073423;28;20540;-72
2022/04/14 10:08:13;;;;;;;72.27;13.70;;;;;;;;;;5072640;28;20487;-72
2022/04/14 10:10:42;;;;;;;72.17;15.23;;;;;;;;;;5073148;28;20451;-72
2022/04/14 10:13:10;;;;;;;72.40;15.00;;;;;;;;;;5073128;28;20456;-72
2022/04/14 10:15:40;;;;;;;68.80;11.27;;;;;;;;;;5073417;28;20455;-72
2022/04/14 10:18:09;;;;;;;75.80;13.80;;;;;;;;;;5072555;28;20571;-74
2022/04/14 10:20:37;;;;;;;69.93;13.70;;;;;;;;;;5073238;28;20473;-72
2022/04/14 10:23:04;;;;;;;67.30;12.87;;;;;;;;;;5072921;28;20474;-72
2022/04/14 10:25:32;;;;;;;69.67;13.60;;;;;;;;;;5073459;28;20447;-71
2022/04/14 10:28:00;;;;;;;70.80;14.70;;;;;;;;;;5072080;28;20991;-71
2022/04/14 10:30:28;;;;;;;69.37;12.20;;;;;;;;;;5073408;28;20939;-71
2022/04/14 10:32:57;;;;;;;69.43;13.80;;;;;;;;;;5072861;28;20888;-71
2022/04/14 10:35:25;;;;;;;71.87;14.00;;;;;;;;;;5072861;28;20448;-70
2022/04/14 10:37:57;;;;;;;71.97;13.10;;;;;;;;;;5071968;28;20892;-70
2022/04/14 10:40:24;;;;;;;67.30;10.03;;;;;;;;;;5072728;28;21029;-71
2022/04/14 10:42:54;;;;;;;67.40;11.80;;;;;;;;;;5072678;28;20539;-70
2022/04/14 10:45:23;;;;;;;69.93;11.90;;;;;;;;;;5072530;28;20543;-72
2022/04/14 10:47:54;;;;;;;66.23;9.40;;;;;;;;;;5071706;28;20522;-70
2022/04/14 10:50:23;;;;;;;72.23;13.80;;;;;;;;;;5072435;28;20443;-70
2022/04/14 10:53:03;;;;;;;71.60;13.10;;;;;;;;;;5072566;28;20883;-70
2022/04/14 10:55:43;;;;;;;69.43;12.40;;;;;;;;;;5072526;28;20542;-70
2022/04/14 10:58:38;;;;;;;67.67;11.87;;;;;;;;;;5071673;28;20891;-70
2022/04/14 11:01:06;;;;;;;68.83;12.20;;;;;;;;;;5048004;28;20463;-71
2022/04/14 11:03:48;;;;;;;68.37;12.20;;;;;;;;;;5072369;28;20462;-71
2022/04/14 11:06:34;;;;;;;66.90;10.53;;;;;;;;;;5070820;28;20463;-71
2022/04/14 11:09:02;;;;;;;68.10;10.70;;;;;;;;;;5071860;28;20554;-71
2022/04/14 11:11:29;;;;;;;67.57;10.20;;;;;;;;;;5072310;28;20542;-71
2022/04/14 11:14:09;;;;;;;64.50;12.10;;;;;;;;;;5072206;28;20526;-71
2022/04/14 11:16:47;;;;;;;69.90;12.73;;;;;;;;;;5072204;28;20514;-71
2022/04/14 11:19:32;;;;;;;70.07;13.10;;;;;;;;;;5071083;28;20479;-71
2022/04/14 11:22:08;;;;;;;71.63;11.70;;;;;;;;;;5071131;28;21030;-71
2022/04/14 11:24:41;;;;;;;67.10;11.27;;;;;;;;;;5071727;28;20515;-71
2022/04/14 11:27:15;;;;;;;68.30;11.93;;;;;;;;;;5070979;28;20489;-72
2022/04/14 11:29:43;;;;;;;65.20;9.57;;;;;;;;;;5071814;28;20475;-71
2022/04/14 11:32:11;;;;;;;68.50;10.93;;;;;;;;;;5072141;28;20870;-71
2022/04/14 11:34:40;;;;;;;69.97;12.30;;;;;;;;;;5071878;28;20844;-71
2022/04/14 11:37:22;;;;;;;66.97;11.23;;;;;;;;;;5071666;28;20546;-71
2022/04/14 11:40:10;;;;;;;65.27;8.83;;;;;;;;;;5071699;28;20447;-71
2022/04/14 11:42:38;;;;;;;66.90;10.47;;;;;;;;;;5071776;28;20954;-71
2022/04/14 11:45:05;;;;;;;64.80;9.60;;;;;;;;;;5072007;28;20445;-71
2022/04/14 11:47:33;;;;;;;67.70;11.20;;;;;;;;;;5071382;28;20483;-71
2022/04/14 11:50:00;;;;;;;67.00;10.77;;;;;;;;;;5071775;28;20456;-71
2022/04/14 11:52:27;;;;;;;67.37;10.80;;;;;;;;;;5071712;28;20538;-71
2022/04/14 11:54:56;;;;;;;65.10;10.07;;;;;;;;;;5071631;28;20447;-71
2022/04/14 11:57:26;;;;;;;66.30;11.27;;;;;;;;;;5071324;28;20444;-71
2022/04/14 11:59:54;;;;;;;69.57;9.30;;;;;;;;;;5071727;28;20455;-71
2022/04/14 12:02:22;;;;;;;62.97;8.10;;;;;;;;;;5071751;28;20845;-71
2022/04/14 12:04:50;;;;;;;64.33;10.80;;;;;;;;;;5071534;28;21018;-71
2022/04/14 12:07:18;;;;;;;65.37;10.57;;;;;;;;;;5070700;28;20570;-70
2022/04/14 12:09:45;;;;;;;64.53;10.67;;;;;;;;;;5071235;28;20551;-70
2022/04/14 12:12:15;;;;;;;61.80;8.70;;;;;;;;;;5071644;28;20447;-70
2022/04/14 12:14:42;;;;;;;69.50;11.40;;;;;;;;;;5071522;28;20451;-70
2022/04/14 12:17:10;;;;;;;66.47;9.97;;;;;;;;;;5070797;28;20546;-71
2022/04/14 12:19:41;;;;;;;63.80;9.03;;;;;;;;;;5071359;28;20474;-70
2022/04/14 12:22:08;;;;;;;61.93;7.67;;;;;;;;;;5071428;28;20481;-70
2022/04/14 12:24:35;;;;;;;68.00;9.50;;;;;;;;;;5071361;28;20443;-70
2022/04/14 12:27:02;;;;;;;64.50;10.27;;;;;;;;;;5071351;28;20447;-70
2022/04/14 12:29:31;;;;;;;62.20;8.70;;;;;;;;;;5070650;28;20473;-70
2022/04/14 12:31:59;;;;;;;64.87;9.60;;;;;;;;;;5071439;28;20534;-70
2022/04/14 12:34:27;;;;;;;62.60;9.10;;;;;;;;;;5072294;28;20453;-70
2022/04/14 12:37:07;;;;;;;64.27;10.40;;;;;;;;;;5075346;28;20475;-70
2022/04/14 12:39:35;;;;;;;66.60;11.00;;;;;;;;;;5075029;28;20467;-70
2022/04/14 12:42:02;;;;;;;64.70;8.80;;;;;;;;;;5075096;28;20847;-70
2022/04/14 12:44:30;;;;;;;64.10;8.47;;;;;;;;;;5074883;28;20451;-70
2022/04/14 12:46:58;;;;;;;65.90;8.80;;;;;;;;;;5074642;28;20449;-70
2022/04/14 12:49:32;;;;;;;67.73;10.40;;;;;;;;;;5074045;28;20574;-70
2022/04/14 12:52:01;;;;;;;66.60;9.87;;;;;;;;;;5075006;28;20800;-70
2022/04/14 12:54:28;;;;;;;68.10;8.47;;;;;;;;;;5074686;28;21033;-70
2022/04/14 12:56:57;;;;;;;63.80;8.67;;;;;;;;;;5074794;28;20451;-70
2022/04/14 12:59:24;;;;;;;66.07;8.93;;;;;;;;;;5073829;28;20463;-70
2022/04/14 13:01:53;;;;;;;64.43;10.07;;;;;;;;;;5074617;28;20466;-72
2022/04/14 13:04:21;;;;;;;67.30;9.27;;;;;;;;;;5074625;28;20467;-71
2022/04/14 13:06:58;;;;;;;64.23;9.70;;;;;;;;;;5074566;28;20479;-71
2022/04/14 13:09:25;;;;;;;69.23;10.50;;;;;;;;;;5073696;28;20980;-71
2022/04/14 13:11:53;;;;;;;66.73;9.20;;;;;;;;;;5074354;28;20450;-71
2022/04/14 13:14:21;;;;;;;65.00;9.40;;;;;;;;;;5074469;28;20500;-71
2022/04/14 13:16:48;;;;;;;63.90;9.77;;;;;;;;;;5074327;28;21019;-72
2022/04/14 13:19:17;;;;;;;65.97;8.70;;;;;;;;;;5073576;28;20554;-72
2022/04/14 13:21:44;;;;;;;64.10;8.10;;;;;;;;;;5074195;28;20518;-72
2022/04/14 13:24:12;;;;;;;64.63;8.33;;;;;;;;;;5074180;28;20815;-72
2022/04/14 13:26:39;;;;;;;69.23;10.70;;;;;;;;;;5074169;28;20534;-71
2022/04/14 13:29:07;;;;;;;66.33;10.63;;;;;;;;;;5073424;28;20573;-71
2022/04/14 13:31:34;;;;;;;64.27;8.93;;;;;;;;;;5074265;28;20451;-71
2022/04/14 13:34:01;;;;;;;62.60;7.10;;;;;;;;;;5074111;28;20538;-71
2022/04/14 13:36:30;;;;;;;65.90;7.97;;;;;;;;;;5074151;28;20542;-71
2022/04/14 13:38:57;;;;;;;67.07;8.17;;;;;;;;;;5073066;28;20913;-71
2022/04/14 13:41:25;;;;;;;63.10;8.37;;;;;;;;;;5074233;28;20534;-72
2022/04/14 13:43:52;;;;;;;62.47;7.77;;;;;;;;;;5073976;28;20819;-72
2022/04/14 13:46:19;;;;;;;69.70;8.70;;;;;;;;;;5073642;28;20624;-71
2022/04/14 13:48:46;;;;;;;63.30;8.40;;;;;;;;;;5072991;28;20487;-72
2022/04/14 13:51:13;;;;;;;62.97;8.20;;;;;;;;;;5073733;28;20447;-71
2022/04/14 13:53:42;;;;;;;62.70;8.50;;;;;;;;;;5073577;28;20448;-72
2022/04/14 13:56:09;;;;;;;62.43;8.90;;;;;;;;;;5073884;28;20924;-71
2022/04/14 13:58:37;;;;;;;66.00;8.80;;;;;;;;;;5072987;28;21051;-72
2022/04/14 14:01:04;;;;;;;63.47;8.17;;;;;;;;;;5073605;28;20970;-71
2022/04/14 14:03:31;;;;;;;66.20;9.03;;;;;;;;;;5073743;28;20478;-71
2022/04/14 14:05:59;;;;;;;63.73;8.80;;;;;;;;;;5073261;28;20952;-72
2022/04/14 14:08:26;;;;;;;67.93;8.80;;;;;;;;;;5072791;28;20498;-71
2022/04/14 14:10:56;;;;;;;66.43;8.50;;;;;;;;;;5073640;28;20447;-72
2022/04/14 14:13:23;;;;;;;61.17;7.27;;;;;;;;;;5073469;28;20452;-72
2022/04/14 14:15:51;;;;;;;65.07;8.57;;;;;;;;;;5073372;28;20534;-71
2022/04/14 14:18:19;;;;;;;63.20;9.03;;;;;;;;;;5072484;28;20463;-71
2022/04/14 14:20:46;;;;;;;65.13;7.73;;;;;;;;;;5073176;28;20446;-71
2022/04/14 14:23:14;;;;;;;67.27;9.73;;;;;;;;;;5073179;28;20458;-72
2022/04/14 14:25:41;;;;;;;67.67;9.20;;;;;;;;;;5073181;28;20447;-71
2022/04/14 14:28:10;;;;;;;63.57;9.70;;;;;;;;;;5072445;28;20487;-71
2022/04/14 14:30:38;;;;;;;63.90;10.17;;;;;;;;;;5073129;28;20515;-71
2022/04/14 14:33:06;;;;;;;67.47;11.40;;;;;;;;;;5072753;28;20944;-71